sensor_id;sensor_type;location;lat;lon;timestamp;P1;durP1;ratioP1;P2;durP2;ratioP2
39188;SDS011;24915;50.858;4.376;2023-03-12T00:02:20;16.65;;;6.55;;
39188;SDS011;24915;50.858;4.376;2023-03-12T00:04:46;21.38;;;6.47;;
39188;SDS011;24915;50.858;4.376;2023-03-12T00:07:11;24.38;;;6.70;;
39188;SDS011;24915;50.858;4.376;2023-03-12T00:09:37;15.95;;;6.63;;
39188;SDS011;24915;50.858;4.376;2023-03-12T00:12:04;14.50;;;5.38;;
39188;SDS011;24915;50.858;4.376;2023-03-12T00:14:30;10.70;;;4.78;;
39188;SDS011;24915;50.858;4.376;2023-03-12T00:16:56;14.38;;;5.15;;
39188;SDS011;24915;50.858;4.376;2023-03-12T00:19:22;14.15;;;5.50;;
39188;SDS011;24915;50.858;4.376;2023-03-12T00:21:48;21.23;;;4.97;;
39188;SDS011;24915;50.858;4.376;2023-03-12T00:24:13;9.43;;;4.53;;
39188;SDS011;24915;50.858;4.376;2023-03-12T00:26:41;11.73;;;4.75;;
39188;SDS011;24915;50.858;4.376;2023-03-12T00:29:07;15.23;;;4.78;;
39188;SDS011;24915;50.858;4.376;2023-03-12T00:31:33;10.35;;;4.57;;
39188;SDS011;24915;50.858;4.376;2023-03-12T00:34:00;14.55;;;5.35;;
39188;SDS011;24915;50.858;4.376;2023-03-12T00:36:30;18.23;;;5.68;;
39188;SDS011;24915;50.858;4.376;2023-03-12T00:38:56;16.15;;;5.95;;
39188;SDS011;24915;50.858;4.376;2023-03-12T00:41:23;11.48;;;5.40;;
39188;SDS011;24915;50.858;4.376;2023-03-12T00:43:50;9.93;;;5.28;;
39188;SDS011;24915;50.858;4.376;2023-03-12T00:46:16;8.73;;;4.40;;
39188;SDS011;24915;50.858;4.376;2023-03-12T00:48:42;14.82;;;4.95;;
39188;SDS011;24915;50.858;4.376;2023-03-12T00:51:08;10.63;;;5.20;;
39188;SDS011;24915;50.858;4.376;2023-03-12T00:53:34;13.75;;;4.93;;
39188;SDS011;24915;50.858;4.376;2023-03-12T00:56:01;12.10;;;5.13;;
39188;SDS011;24915;50.858;4.376;2023-03-12T00:58:27;11.68;;;4.97;;
39188;SDS011;24915;50.858;4.376;2023-03-12T01:00:52;12.75;;;4.65;;
39188;SDS011;24915;50.858;4.376;2023-03-12T01:03:18;13.75;;;5.78;;
39188;SDS011;24915;50.858;4.376;2023-03-12T01:05:44;17.85;;;4.80;;
39188;SDS011;24915;50.858;4.376;2023-03-12T01:08:10;13.50;;;5.10;;
39188;SDS011;24915;50.858;4.376;2023-03-12T01:10:38;9.82;;;4.85;;
39188;SDS011;24915;50.858;4.376;2023-03-12T01:13:06;14.82;;;5.47;;
39188;SDS011;24915;50.858;4.376;2023-03-12T01:15:32;12.10;;;4.80;;
39188;SDS011;24915;50.858;4.376;2023-03-12T01:17:58;11.40;;;4.80;;
39188;SDS011;24915;50.858;4.376;2023-03-12T01:20:24;8.90;;;5.18;;
39188;SDS011;24915;50.858;4.376;2023-03-12T01:22:49;16.05;;;4.45;;
39188;SDS011;24915;50.858;4.376;2023-03-12T01:25:15;13.82;;;4.60;;
39188;SDS011;24915;50.858;4.376;2023-03-12T01:27:41;15.35;;;5.22;;
39188;SDS011;24915;50.858;4.376;2023-03-12T01:30:07;8.82;;;3.50;;
39188;SDS011;24915;50.858;4.376;2023-03-12T01:32:33;15.68;;;4.38;;
39188;SDS011;24915;50.858;4.376;2023-03-12T01:34:58;9.57;;;4.00;;
39188;SDS011;24915;50.858;4.376;2023-03-12T01:37:24;11.57;;;4.15;;
39188;SDS011;24915;50.858;4.376;2023-03-12T01:39:50;16.08;;;4.03;;
39188;SDS011;24915;50.858;4.376;2023-03-12T01:42:16;12.23;;;3.40;;
39188;SDS011;24915;50.858;4.376;2023-03-12T01:44:49;15.90;;;4.30;;
39188;SDS011;24915;50.858;4.376;2023-03-12T01:47:19;11.15;;;4.20;;
39188;SDS011;24915;50.858;4.376;2023-03-12T01:49:45;10.60;;;3.53;;
39188;SDS011;24915;50.858;4.376;2023-03-12T01:52:13;10.93;;;3.70;;
39188;SDS011;24915;50.858;4.376;2023-03-12T01:57:20;8.95;;;3.85;;
39188;SDS011;24915;50.858;4.376;2023-03-12T01:59:49;9.93;;;3.90;;
39188;SDS011;24915;50.858;4.376;2023-03-12T02:02:17;6.82;;;3.10;;
39188;SDS011;24915;50.858;4.376;2023-03-12T02:04:48;8.63;;;3.15;;
39188;SDS011;24915;50.858;4.376;2023-03-12T02:07:22;10.35;;;3.42;;
39188;SDS011;24915;50.858;4.376;2023-03-12T02:09:48;13.73;;;4.07;;
39188;SDS011;24915;50.858;4.376;2023-03-12T02:12:14;13.10;;;3.33;;
39188;SDS011;24915;50.858;4.376;2023-03-12T02:14:40;10.90;;;3.58;;
39188;SDS011;24915;50.858;4.376;2023-03-12T02:17:07;9.32;;;3.33;;
39188;SDS011;24915;50.858;4.376;2023-03-12T02:22:36;12.10;;;4.43;;
39188;SDS011;24915;50.858;4.376;2023-03-12T02:28:04;18.20;;;4.20;;
39188;SDS011;24915;50.858;4.376;2023-03-12T02:30:32;17.08;;;4.53;;
39188;SDS011;24915;50.858;4.376;2023-03-12T02:33:00;10.60;;;3.83;;
39188;SDS011;24915;50.858;4.376;2023-03-12T02:35:28;11.82;;;4.13;;
39188;SDS011;24915;50.858;4.376;2023-03-12T02:37:55;8.88;;;3.72;;
39188;SDS011;24915;50.858;4.376;2023-03-12T02:40:30;16.70;;;3.70;;
39188;SDS011;24915;50.858;4.376;2023-03-12T02:43:00;14.00;;;3.85;;
39188;SDS011;24915;50.858;4.376;2023-03-12T02:45:29;12.48;;;3.75;;
39188;SDS011;24915;50.858;4.376;2023-03-12T02:47:56;11.20;;;3.92;;
39188;SDS011;24915;50.858;4.376;2023-03-12T02:50:21;11.52;;;4.05;;
39188;SDS011;24915;50.858;4.376;2023-03-12T02:52:47;12.23;;;3.97;;
39188;SDS011;24915;50.858;4.376;2023-03-12T02:55:13;12.30;;;3.50;;
39188;SDS011;24915;50.858;4.376;2023-03-12T02:57:38;14.30;;;3.80;;
39188;SDS011;24915;50.858;4.376;2023-03-12T03:00:05;11.85;;;4.45;;
39188;SDS011;24915;50.858;4.376;2023-03-12T03:02:36;13.05;;;4.05;;
39188;SDS011;24915;50.858;4.376;2023-03-12T03:05:02;13.15;;;4.10;;
39188;SDS011;24915;50.858;4.376;2023-03-12T03:07:28;14.25;;;3.80;;
39188;SDS011;24915;50.858;4.376;2023-03-12T03:09:53;10.23;;;4.07;;
39188;SDS011;24915;50.858;4.376;2023-03-12T03:12:19;6.60;;;3.40;;
39188;SDS011;24915;50.858;4.376;2023-03-12T03:14:45;12.25;;;3.70;;
39188;SDS011;24915;50.858;4.376;2023-03-12T03:17:10;7.70;;;3.40;;
39188;SDS011;24915;50.858;4.376;2023-03-12T03:19:36;8.43;;;4.03;;
39188;SDS011;24915;50.858;4.376;2023-03-12T03:22:02;11.63;;;3.60;;
39188;SDS011;24915;50.858;4.376;2023-03-12T03:24:27;9.65;;;4.03;;
39188;SDS011;24915;50.858;4.376;2023-03-12T03:26:53;10.07;;;4.22;;
39188;SDS011;24915;50.858;4.376;2023-03-12T03:29:18;15.02;;;3.97;;
39188;SDS011;24915;50.858;4.376;2023-03-12T03:31:44;11.95;;;3.70;;
39188;SDS011;24915;50.858;4.376;2023-03-12T03:34:10;12.80;;;3.47;;
39188;SDS011;24915;50.858;4.376;2023-03-12T03:36:36;13.15;;;4.90;;
39188;SDS011;24915;50.858;4.376;2023-03-12T03:39:02;19.00;;;3.95;;
39188;SDS011;24915;50.858;4.376;2023-03-12T03:41:29;12.52;;;3.72;;
39188;SDS011;24915;50.858;4.376;2023-03-12T03:43:56;15.43;;;4.30;;
39188;SDS011;24915;50.858;4.376;2023-03-12T03:46:23;13.60;;;4.97;;
39188;SDS011;24915;50.858;4.376;2023-03-12T03:48:49;7.80;;;3.75;;
39188;SDS011;24915;50.858;4.376;2023-03-12T03:51:15;13.98;;;4.18;;
39188;SDS011;24915;50.858;4.376;2023-03-12T03:53:41;12.48;;;4.40;;
39188;SDS011;24915;50.858;4.376;2023-03-12T03:56:07;17.02;;;4.13;;
39188;SDS011;24915;50.858;4.376;2023-03-12T03:58:35;10.52;;;3.78;;
39188;SDS011;24915;50.858;4.376;2023-03-12T04:01:01;12.73;;;4.65;;
39188;SDS011;24915;50.858;4.376;2023-03-12T04:03:26;9.77;;;4.32;;
39188;SDS011;24915;50.858;4.376;2023-03-12T04:05:53;9.00;;;4.15;;
39188;SDS011;24915;50.858;4.376;2023-03-12T04:08:19;9.32;;;4.55;;
39188;SDS011;24915;50.858;4.376;2023-03-12T04:10:45;14.70;;;5.10;;
39188;SDS011;24915;50.858;4.376;2023-03-12T04:13:10;11.10;;;4.93;;
39188;SDS011;24915;50.858;4.376;2023-03-12T04:15:36;12.15;;;5.10;;
39188;SDS011;24915;50.858;4.376;2023-03-12T04:18:02;12.70;;;5.00;;
39188;SDS011;24915;50.858;4.376;2023-03-12T04:20:27;15.98;;;5.75;;
39188;SDS011;24915;50.858;4.376;2023-03-12T04:22:53;12.10;;;5.10;;
39188;SDS011;24915;50.858;4.376;2023-03-12T04:25:19;11.48;;;5.18;;
39188;SDS011;24915;50.858;4.376;2023-03-12T04:27:44;17.48;;;5.25;;
39188;SDS011;24915;50.858;4.376;2023-03-12T04:30:10;13.18;;;5.45;;
39188;SDS011;24915;50.858;4.376;2023-03-12T04:32:36;19.42;;;5.90;;
39188;SDS011;24915;50.858;4.376;2023-03-12T04:35:02;18.25;;;5.65;;
39188;SDS011;24915;50.858;4.376;2023-03-12T04:37:30;14.70;;;5.78;;
39188;SDS011;24915;50.858;4.376;2023-03-12T04:39:57;14.65;;;5.80;;
39188;SDS011;24915;50.858;4.376;2023-03-12T04:42:23;13.68;;;6.05;;
39188;SDS011;24915;50.858;4.376;2023-03-12T04:44:49;16.70;;;6.45;;
39188;SDS011;24915;50.858;4.376;2023-03-12T04:47:16;19.40;;;6.97;;
39188;SDS011;24915;50.858;4.376;2023-03-12T04:49:42;13.60;;;6.78;;
39188;SDS011;24915;50.858;4.376;2023-03-12T04:52:07;16.23;;;5.47;;
39188;SDS011;24915;50.858;4.376;2023-03-12T04:54:33;14.95;;;6.53;;
39188;SDS011;24915;50.858;4.376;2023-03-12T04:56:59;13.48;;;6.35;;
39188;SDS011;24915;50.858;4.376;2023-03-12T04:59:24;12.45;;;6.63;;
39188;SDS011;24915;50.858;4.376;2023-03-12T05:01:50;11.50;;;6.20;;
39188;SDS011;24915;50.858;4.376;2023-03-12T05:04:15;15.77;;;6.78;;
39188;SDS011;24915;50.858;4.376;2023-03-12T05:06:41;15.82;;;7.18;;
39188;SDS011;24915;50.858;4.376;2023-03-12T05:09:07;15.43;;;7.65;;
39188;SDS011;24915;50.858;4.376;2023-03-12T05:11:32;17.33;;;7.03;;
39188;SDS011;24915;50.858;4.376;2023-03-12T05:13:58;19.20;;;7.55;;
39188;SDS011;24915;50.858;4.376;2023-03-12T05:16:24;13.48;;;6.68;;
39188;SDS011;24915;50.858;4.376;2023-03-12T05:18:49;17.02;;;8.07;;
39188;SDS011;24915;50.858;4.376;2023-03-12T05:21:16;13.95;;;7.82;;
39188;SDS011;24915;50.858;4.376;2023-03-12T05:23:44;14.20;;;8.10;;
39188;SDS011;24915;50.858;4.376;2023-03-12T05:26:19;14.15;;;8.73;;
39188;SDS011;24915;50.858;4.376;2023-03-12T05:28:50;17.13;;;8.38;;
39188;SDS011;24915;50.858;4.376;2023-03-12T05:31:16;19.80;;;8.20;;
39188;SDS011;24915;50.858;4.376;2023-03-12T05:33:42;16.08;;;8.55;;
39188;SDS011;24915;50.858;4.376;2023-03-12T05:36:08;23.52;;;11.02;;
39188;SDS011;24915;50.858;4.376;2023-03-12T05:38:35;15.35;;;9.63;;
39188;SDS011;24915;50.858;4.376;2023-03-12T05:41:00;15.88;;;9.55;;
39188;SDS011;24915;50.858;4.376;2023-03-12T05:43:26;14.90;;;10.55;;
39188;SDS011;24915;50.858;4.376;2023-03-12T05:45:52;14.98;;;9.60;;
39188;SDS011;24915;50.858;4.376;2023-03-12T05:48:22;20.08;;;10.70;;
39188;SDS011;24915;50.858;4.376;2023-03-12T05:50:47;22.67;;;11.73;;
39188;SDS011;24915;50.858;4.376;2023-03-12T05:53:13;14.15;;;9.98;;
39188;SDS011;24915;50.858;4.376;2023-03-12T05:55:39;16.10;;;10.88;;
39188;SDS011;24915;50.858;4.376;2023-03-12T05:58:05;19.20;;;11.13;;
39188;SDS011;24915;50.858;4.376;2023-03-12T06:00:32;17.83;;;11.02;;
39188;SDS011;24915;50.858;4.376;2023-03-12T06:03:02;20.15;;;11.40;;
39188;SDS011;24915;50.858;4.376;2023-03-12T06:05:31;18.85;;;11.85;;
39188;SDS011;24915;50.858;4.376;2023-03-12T06:07:58;19.15;;;12.65;;
39188;SDS011;24915;50.858;4.376;2023-03-12T06:10:24;21.83;;;12.43;;
39188;SDS011;24915;50.858;4.376;2023-03-12T06:12:50;18.52;;;12.93;;
39188;SDS011;24915;50.858;4.376;2023-03-12T06:15:16;22.10;;;12.68;;
39188;SDS011;24915;50.858;4.376;2023-03-12T06:17:41;19.75;;;11.98;;
39188;SDS011;24915;50.858;4.376;2023-03-12T06:20:07;20.75;;;13.32;;
39188;SDS011;24915;50.858;4.376;2023-03-12T06:22:33;22.55;;;13.63;;
39188;SDS011;24915;50.858;4.376;2023-03-12T06:24:59;20.73;;;13.30;;
39188;SDS011;24915;50.858;4.376;2023-03-12T06:27:25;20.75;;;13.57;;
39188;SDS011;24915;50.858;4.376;2023-03-12T06:29:50;27.38;;;15.60;;
39188;SDS011;24915;50.858;4.376;2023-03-12T06:32:16;31.40;;;14.95;;
39188;SDS011;24915;50.858;4.376;2023-03-12T06:34:42;23.70;;;15.25;;
39188;SDS011;24915;50.858;4.376;2023-03-12T06:37:08;21.23;;;14.77;;
39188;SDS011;24915;50.858;4.376;2023-03-12T06:39:34;25.30;;;15.65;;
39188;SDS011;24915;50.858;4.376;2023-03-12T06:42:00;24.83;;;16.27;;
39188;SDS011;24915;50.858;4.376;2023-03-12T06:44:26;24.98;;;15.73;;
39188;SDS011;24915;50.858;4.376;2023-03-12T06:46:51;23.40;;;15.40;;
39188;SDS011;24915;50.858;4.376;2023-03-12T06:49:17;25.60;;;15.85;;
39188;SDS011;24915;50.858;4.376;2023-03-12T06:51:43;26.23;;;15.88;;
39188;SDS011;24915;50.858;4.376;2023-03-12T06:54:09;31.10;;;16.42;;
39188;SDS011;24915;50.858;4.376;2023-03-12T06:56:34;25.63;;;15.73;;
39188;SDS011;24915;50.858;4.376;2023-03-12T06:59:00;33.63;;;17.08;;
39188;SDS011;24915;50.858;4.376;2023-03-12T07:01:25;35.78;;;17.38;;
39188;SDS011;24915;50.858;4.376;2023-03-12T07:03:51;30.60;;;17.20;;
39188;SDS011;24915;50.858;4.376;2023-03-12T07:06:18;31.70;;;17.23;;
39188;SDS011;24915;50.858;4.376;2023-03-12T07:08:45;26.38;;;17.77;;
39188;SDS011;24915;50.858;4.376;2023-03-12T07:11:11;31.48;;;17.65;;
39188;SDS011;24915;50.858;4.376;2023-03-12T07:13:37;32.95;;;17.42;;
39188;SDS011;24915;50.858;4.376;2023-03-12T07:16:03;29.42;;;18.20;;
39188;SDS011;24915;50.858;4.376;2023-03-12T07:18:29;31.17;;;18.20;;
39188;SDS011;24915;50.858;4.376;2023-03-12T07:20:55;33.17;;;18.67;;
39188;SDS011;24915;50.858;4.376;2023-03-12T07:23:21;34.03;;;18.08;;
39188;SDS011;24915;50.858;4.376;2023-03-12T07:25:47;35.05;;;18.88;;
39188;SDS011;24915;50.858;4.376;2023-03-12T07:28:13;38.35;;;18.77;;
39188;SDS011;24915;50.858;4.376;2023-03-12T07:30:39;43.00;;;20.05;;
39188;SDS011;24915;50.858;4.376;2023-03-12T07:33:06;34.70;;;18.42;;
39188;SDS011;24915;50.858;4.376;2023-03-12T07:35:34;35.38;;;19.65;;
39188;SDS011;24915;50.858;4.376;2023-03-12T07:38:02;40.72;;;19.65;;
39188;SDS011;24915;50.858;4.376;2023-03-12T07:40:28;37.95;;;18.20;;
39188;SDS011;24915;50.858;4.376;2023-03-12T07:42:53;47.50;;;19.48;;
39188;SDS011;24915;50.858;4.376;2023-03-12T07:45:19;45.13;;;20.25;;
39188;SDS011;24915;50.858;4.376;2023-03-12T07:47:45;39.45;;;19.67;;
39188;SDS011;24915;50.858;4.376;2023-03-12T07:50:11;48.03;;;19.27;;
39188;SDS011;24915;50.858;4.376;2023-03-12T07:52:37;69.28;;;22.75;;
39188;SDS011;24915;50.858;4.376;2023-03-12T07:55:03;56.90;;;20.35;;
39188;SDS011;24915;50.858;4.376;2023-03-12T07:57:29;66.38;;;21.73;;
39188;SDS011;24915;50.858;4.376;2023-03-12T07:59:55;59.90;;;20.85;;
39188;SDS011;24915;50.858;4.376;2023-03-12T08:02:20;64.88;;;23.52;;
39188;SDS011;24915;50.858;4.376;2023-03-12T08:04:46;77.43;;;21.45;;
39188;SDS011;24915;50.858;4.376;2023-03-12T08:07:12;90.88;;;23.10;;
39188;SDS011;24915;50.858;4.376;2023-03-12T08:09:38;82.40;;;24.30;;
39188;SDS011;24915;50.858;4.376;2023-03-12T08:12:07;82.03;;;24.25;;
39188;SDS011;24915;50.858;4.376;2023-03-12T08:14:33;81.55;;;23.58;;
39188;SDS011;24915;50.858;4.376;2023-03-12T08:16:59;94.78;;;22.98;;
39188;SDS011;24915;50.858;4.376;2023-03-12T08:19:26;102.68;;;24.77;;
39188;SDS011;24915;50.858;4.376;2023-03-12T08:21:52;105.97;;;24.50;;
39188;SDS011;24915;50.858;4.376;2023-03-12T08:24:18;103.80;;;24.55;;
39188;SDS011;24915;50.858;4.376;2023-03-12T08:26:44;109.97;;;23.67;;
39188;SDS011;24915;50.858;4.376;2023-03-12T08:29:10;100.45;;;23.73;;
39188;SDS011;24915;50.858;4.376;2023-03-12T08:31:36;90.72;;;23.48;;
39188;SDS011;24915;50.858;4.376;2023-03-12T08:34:02;117.93;;;25.10;;
39188;SDS011;24915;50.858;4.376;2023-03-12T08:36:27;109.28;;;23.17;;
39188;SDS011;24915;50.858;4.376;2023-03-12T08:38:53;106.70;;;24.20;;
39188;SDS011;24915;50.858;4.376;2023-03-12T08:41:19;97.53;;;23.15;;
39188;SDS011;24915;50.858;4.376;2023-03-12T08:43:45;112.63;;;22.13;;
39188;SDS011;24915;50.858;4.376;2023-03-12T08:46:11;94.32;;;20.77;;
39188;SDS011;24915;50.858;4.376;2023-03-12T08:48:37;114.63;;;23.50;;
39188;SDS011;24915;50.858;4.376;2023-03-12T08:51:03;94.15;;;21.00;;
39188;SDS011;24915;50.858;4.376;2023-03-12T08:53:30;94.22;;;20.60;;
39188;SDS011;24915;50.858;4.376;2023-03-12T08:55:56;94.45;;;20.23;;
39188;SDS011;24915;50.858;4.376;2023-03-12T08:58:22;94.95;;;18.88;;
39188;SDS011;24915;50.858;4.376;2023-03-12T09:00:49;98.43;;;18.65;;
39188;SDS011;24915;50.858;4.376;2023-03-12T09:03:18;85.38;;;18.30;;
39188;SDS011;24915;50.858;4.376;2023-03-12T09:05:45;95.20;;;17.80;;
39188;SDS011;24915;50.858;4.376;2023-03-12T09:08:12;99.65;;;15.98;;
39188;SDS011;24915;50.858;4.376;2023-03-12T09:10:38;76.43;;;15.93;;
39188;SDS011;24915;50.858;4.376;2023-03-12T09:13:04;91.15;;;15.80;;
39188;SDS011;24915;50.858;4.376;2023-03-12T09:15:30;89.75;;;15.55;;
39188;SDS011;24915;50.858;4.376;2023-03-12T09:17:56;85.28;;;15.65;;
39188;SDS011;24915;50.858;4.376;2023-03-12T09:20:22;90.95;;;15.57;;
39188;SDS011;24915;50.858;4.376;2023-03-12T09:22:49;86.68;;;15.00;;
39188;SDS011;24915;50.858;4.376;2023-03-12T09:25:14;99.85;;;14.18;;
39188;SDS011;24915;50.858;4.376;2023-03-12T09:27:42;88.32;;;14.60;;
39188;SDS011;24915;50.858;4.376;2023-03-12T09:30:13;79.55;;;12.73;;
39188;SDS011;24915;50.858;4.376;2023-03-12T09:32:44;84.30;;;12.93;;
39188;SDS011;24915;50.858;4.376;2023-03-12T09:35:11;80.85;;;12.88;;
39188;SDS011;24915;50.858;4.376;2023-03-12T09:37:38;85.35;;;13.18;;
39188;SDS011;24915;50.858;4.376;2023-03-12T09:40:04;78.82;;;12.00;;
39188;SDS011;24915;50.858;4.376;2023-03-12T09:45:02;73.32;;;12.68;;
39188;SDS011;24915;50.858;4.376;2023-03-12T09:47:35;67.50;;;9.95;;
39188;SDS011;24915;50.858;4.376;2023-03-12T09:55:56;72.93;;;10.65;;
39188;SDS011;24915;50.858;4.376;2023-03-12T09:58:26;72.55;;;12.77;;
39188;SDS011;24915;50.858;4.376;2023-03-12T10:01:05;81.85;;;12.77;;
39188;SDS011;24915;50.858;4.376;2023-03-12T10:06:48;79.50;;;12.75;;
39188;SDS011;24915;50.858;4.376;2023-03-12T10:09:43;73.05;;;12.23;;
39188;SDS011;24915;50.858;4.376;2023-03-12T10:12:43;67.35;;;10.32;;
39188;SDS011;24915;50.858;4.376;2023-03-12T10:28:36;68.72;;;10.88;;
39188;SDS011;24915;50.858;4.376;2023-03-12T10:40:03;63.65;;;10.98;;
39188;SDS011;24915;50.858;4.376;2023-03-12T10:42:30;66.70;;;10.35;;
39188;SDS011;24915;50.858;4.376;2023-03-12T10:47:34;74.97;;;11.77;;
39188;SDS011;24915;50.858;4.376;2023-03-12T10:50:23;61.78;;;10.88;;
39188;SDS011;24915;50.858;4.376;2023-03-12T10:52:49;76.20;;;11.30;;
39188;SDS011;24915;50.858;4.376;2023-03-12T10:55:27;64.47;;;11.88;;
39188;SDS011;24915;50.858;4.376;2023-03-12T10:57:54;67.72;;;11.57;;
39188;SDS011;24915;50.858;4.376;2023-03-12T11:00:30;67.03;;;11.48;;
39188;SDS011;24915;50.858;4.376;2023-03-12T11:05:46;58.58;;;11.30;;
39188;SDS011;24915;50.858;4.376;2023-03-12T11:08:27;62.05;;;10.57;;
39188;SDS011;24915;50.858;4.376;2023-03-12T11:10:56;54.85;;;11.13;;
39188;SDS011;24915;50.858;4.376;2023-03-12T11:16:00;64.32;;;12.07;;
39188;SDS011;24915;50.858;4.376;2023-03-12T11:18:55;62.78;;;11.32;;
39188;SDS011;24915;50.858;4.376;2023-03-12T11:21:25;70.57;;;13.77;;
39188;SDS011;24915;50.858;4.376;2023-03-12T11:26:22;68.45;;;12.75;;
39188;SDS011;24915;50.858;4.376;2023-03-12T11:28:49;72.18;;;12.20;;
39188;SDS011;24915;50.858;4.376;2023-03-12T11:31:48;77.18;;;12.90;;
39188;SDS011;24915;50.858;4.376;2023-03-12T11:34:26;68.32;;;12.02;;
39188;SDS011;24915;50.858;4.376;2023-03-12T11:37:11;68.10;;;12.05;;
39188;SDS011;24915;50.858;4.376;2023-03-12T11:40:07;71.45;;;11.30;;
39188;SDS011;24915;50.858;4.376;2023-03-12T11:59:00;71.47;;;13.50;;
39188;SDS011;24915;50.858;4.376;2023-03-12T12:04:53;75.38;;;12.18;;
39188;SDS011;24915;50.858;4.376;2023-03-12T12:07:31;73.28;;;13.15;;
39188;SDS011;24915;50.858;4.376;2023-03-12T12:22:27;67.07;;;11.77;;
39188;SDS011;24915;50.858;4.376;2023-03-12T12:27:44;58.28;;;10.13;;
39188;SDS011;24915;50.858;4.376;2023-03-12T12:33:39;56.72;;;9.45;;
39188;SDS011;24915;50.858;4.376;2023-03-12T12:36:25;62.35;;;9.75;;
39188;SDS011;24915;50.858;4.376;2023-03-12T12:38:55;48.17;;;9.30;;
39188;SDS011;24915;50.858;4.376;2023-03-12T12:41:52;53.60;;;9.20;;
39188;SDS011;24915;50.858;4.376;2023-03-12T12:44:19;62.88;;;9.20;;
39188;SDS011;24915;50.858;4.376;2023-03-12T12:46:54;48.13;;;8.82;;
39188;SDS011;24915;50.858;4.376;2023-03-12T12:49:28;46.40;;;8.88;;
39188;SDS011;24915;50.858;4.376;2023-03-12T12:54:47;52.63;;;10.05;;
39188;SDS011;24915;50.858;4.376;2023-03-12T13:02:44;55.03;;;8.57;;
39188;SDS011;24915;50.858;4.376;2023-03-12T13:05:24;56.00;;;9.52;;
39188;SDS011;24915;50.858;4.376;2023-03-12T13:08:30;55.20;;;9.23;;
39188;SDS011;24915;50.858;4.376;2023-03-12T13:10:58;67.53;;;9.75;;
39188;SDS011;24915;50.858;4.376;2023-03-12T13:13:29;43.35;;;8.68;;
39188;SDS011;24915;50.858;4.376;2023-03-12T13:18:53;56.25;;;10.40;;
39188;SDS011;24915;50.858;4.376;2023-03-12T13:21:49;53.33;;;9.77;;
39188;SDS011;24915;50.858;4.376;2023-03-12T13:24:25;65.03;;;11.85;;
39188;SDS011;24915;50.858;4.376;2023-03-12T13:27:40;55.20;;;10.30;;
39188;SDS011;24915;50.858;4.376;2023-03-12T13:45:32;52.45;;;8.73;;
39188;SDS011;24915;50.858;4.376;2023-03-12T13:48:04;55.38;;;8.27;;
39188;SDS011;24915;50.858;4.376;2023-03-12T13:53:05;55.15;;;8.95;;
39188;SDS011;24915;50.858;4.376;2023-03-12T13:55:39;47.35;;;8.23;;
39188;SDS011;24915;50.858;4.376;2023-03-12T13:58:12;47.97;;;8.73;;
39188;SDS011;24915;50.858;4.376;2023-03-12T14:01:04;56.58;;;9.18;;
39188;SDS011;24915;50.858;4.376;2023-03-12T14:03:35;53.70;;;8.85;;
39188;SDS011;24915;50.858;4.376;2023-03-12T14:13:41;47.58;;;7.15;;
39188;SDS011;24915;50.858;4.376;2023-03-12T14:19:12;40.83;;;8.23;;
39188;SDS011;24915;50.858;4.376;2023-03-12T14:21:40;42.17;;;7.93;;
39188;SDS011;24915;50.858;4.376;2023-03-12T14:24:24;44.75;;;7.45;;
39188;SDS011;24915;50.858;4.376;2023-03-12T14:27:03;50.17;;;9.13;;
39188;SDS011;24915;50.858;4.376;2023-03-12T14:29:41;52.47;;;9.98;;
39188;SDS011;24915;50.858;4.376;2023-03-12T14:32:21;49.67;;;11.02;;
39188;SDS011;24915;50.858;4.376;2023-03-12T14:40:55;43.33;;;8.55;;
39188;SDS011;24915;50.858;4.376;2023-03-12T14:43:42;57.13;;;9.50;;
39188;SDS011;24915;50.858;4.376;2023-03-12T14:46:23;46.25;;;8.70;;
39188;SDS011;24915;50.858;4.376;2023-03-12T14:48:49;51.97;;;9.73;;
39188;SDS011;24915;50.858;4.376;2023-03-12T14:51:20;45.63;;;8.50;;
39188;SDS011;24915;50.858;4.376;2023-03-12T14:53:54;39.88;;;7.85;;
39188;SDS011;24915;50.858;4.376;2023-03-12T14:56:30;39.80;;;6.88;;
39188;SDS011;24915;50.858;4.376;2023-03-12T14:58:59;52.00;;;8.32;;
39188;SDS011;24915;50.858;4.376;2023-03-12T15:01:43;38.25;;;7.28;;
39188;SDS011;24915;50.858;4.376;2023-03-12T15:04:12;44.58;;;8.32;;
39188;SDS011;24915;50.858;4.376;2023-03-12T15:06:43;43.13;;;6.88;;
39188;SDS011;24915;50.858;4.376;2023-03-12T15:09:15;38.72;;;7.72;;
39188;SDS011;24915;50.858;4.376;2023-03-12T15:11:45;41.28;;;7.63;;
39188;SDS011;24915;50.858;4.376;2023-03-12T15:14:26;40.80;;;7.43;;
39188;SDS011;24915;50.858;4.376;2023-03-12T15:16:54;39.72;;;6.80;;
39188;SDS011;24915;50.858;4.376;2023-03-12T15:19:25;36.67;;;6.90;;
39188;SDS011;24915;50.858;4.376;2023-03-12T15:21:55;38.25;;;7.80;;
39188;SDS011;24915;50.858;4.376;2023-03-12T15:24:21;45.38;;;8.43;;
39188;SDS011;24915;50.858;4.376;2023-03-12T15:26:48;39.00;;;7.50;;
39188;SDS011;24915;50.858;4.376;2023-03-12T15:31:57;45.70;;;8.00;;
39188;SDS011;24915;50.858;4.376;2023-03-12T15:36:56;39.63;;;8.48;;
39188;SDS011;24915;50.858;4.376;2023-03-12T15:41:59;46.55;;;9.52;;
39188;SDS011;24915;50.858;4.376;2023-03-12T15:44:34;48.25;;;7.18;;
39188;SDS011;24915;50.858;4.376;2023-03-12T15:47:37;43.17;;;8.35;;
39188;SDS011;24915;50.858;4.376;2023-03-12T15:50:20;43.42;;;8.98;;
39188;SDS011;24915;50.858;4.376;2023-03-12T15:55:59;47.90;;;7.30;;
39188;SDS011;24915;50.858;4.376;2023-03-12T15:58:39;49.90;;;7.53;;
39188;SDS011;24915;50.858;4.376;2023-03-12T16:01:10;44.92;;;8.02;;
39188;SDS011;24915;50.858;4.376;2023-03-12T16:03:36;37.45;;;7.75;;
39188;SDS011;24915;50.858;4.376;2023-03-12T16:06:02;46.00;;;8.93;;
39188;SDS011;24915;50.858;4.376;2023-03-12T16:08:47;41.42;;;8.05;;
39188;SDS011;24915;50.858;4.376;2023-03-12T16:11:19;53.35;;;7.53;;
39188;SDS011;24915;50.858;4.376;2023-03-12T16:13:48;49.05;;;7.45;;
39188;SDS011;24915;50.858;4.376;2023-03-12T16:16:16;41.35;;;8.30;;
39188;SDS011;24915;50.858;4.376;2023-03-12T16:18:44;43.38;;;8.48;;
39188;SDS011;24915;50.858;4.376;2023-03-12T16:21:09;44.80;;;8.38;;
39188;SDS011;24915;50.858;4.376;2023-03-12T16:23:35;49.58;;;9.18;;
39188;SDS011;24915;50.858;4.376;2023-03-12T16:26:02;41.75;;;7.55;;
39188;SDS011;24915;50.858;4.376;2023-03-12T16:28:29;46.22;;;7.82;;
39188;SDS011;24915;50.858;4.376;2023-03-12T16:30:57;56.83;;;9.27;;
39188;SDS011;24915;50.858;4.376;2023-03-12T16:33:23;54.63;;;8.02;;
39188;SDS011;24915;50.858;4.376;2023-03-12T16:35:49;46.60;;;7.93;;
39188;SDS011;24915;50.858;4.376;2023-03-12T16:38:15;50.45;;;8.13;;
39188;SDS011;24915;50.858;4.376;2023-03-12T16:40:43;44.10;;;7.38;;
39188;SDS011;24915;50.858;4.376;2023-03-12T16:43:13;35.60;;;7.05;;
39188;SDS011;24915;50.858;4.376;2023-03-12T16:45:44;44.65;;;7.93;;
39188;SDS011;24915;50.858;4.376;2023-03-12T16:48:14;49.38;;;8.02;;
39188;SDS011;24915;50.858;4.376;2023-03-12T16:50:44;52.67;;;8.98;;
39188;SDS011;24915;50.858;4.376;2023-03-12T16:53:19;47.67;;;9.70;;
39188;SDS011;24915;50.858;4.376;2023-03-12T16:55:54;53.50;;;9.40;;
39188;SDS011;24915;50.858;4.376;2023-03-12T16:58:23;49.13;;;8.30;;
39188;SDS011;24915;50.858;4.376;2023-03-12T17:00:50;51.83;;;7.85;;
39188;SDS011;24915;50.858;4.376;2023-03-12T17:05:45;47.72;;;8.35;;
39188;SDS011;24915;50.858;4.376;2023-03-12T17:08:10;42.95;;;8.40;;
39188;SDS011;24915;50.858;4.376;2023-03-12T17:10:37;45.03;;;8.30;;
39188;SDS011;24915;50.858;4.376;2023-03-12T17:13:03;53.70;;;9.40;;